EGPU

Tiree Airport

Balemartine, United Kingdom
METAR EGPU 240350Z AUTO 32012KT 9999 -RADZ FEW020/// BKN029/// 08/05 Q1033
Observed Flight Rules
Sep-24 @ 03:50 UTC (36 minutes ago) Marginal Visual Flight Rules
Wind Visibility Clouds Conditions
320° at 12 knots 10,000+ meters
  • Few at 2,000' AGL
  • Broken at 2,900' AGL
  • Light Rain
  • Light Drizzle
Temperatures Readings
Current 8°C / 46°F
Dewpoint 5°C / 41°F
Humidity 82%
Altimeter 30.5" Hg
Pressure 1033 hPa
Elevation 12
METAR EGPU 240350Z AUTO 32012KT 9999 -RADZ FEW020/// BKN029/// 08/05 Q1033
Observed Flight Rules
Sep-24 @ 03:50 UTC
(36 minutes ago)
MVFR
Wind Visibility
320° at 12 knots 10,000+ meters
Clouds
  • Few at 2,000' AGL
  • Broken at 2,900' AGL
Conditions
  • Light Rain
  • Light Drizzle
Temperature Dewpoint
8°C / 46°F 5°C / 41°F
Humidity Altimeter Pressure
82% 30.5" Hg 1033 hPa